createdAt,value
2023-03-03T00:00:15.187Z,365.85
2023-03-03T00:02:16.860Z,390.67
2023-03-03T00:04:18.401Z,390.42
2023-03-03T00:06:20.192Z,364.98
2023-03-03T00:08:22.795Z,369.02
2023-03-03T00:10:24.364Z,374.63
2023-03-03T00:12:29.207Z,363.80
2023-03-03T00:14:33.098Z,348.45
2023-03-03T00:16:39.104Z,360.00
2023-03-03T00:18:44.495Z,370.98
2023-03-03T00:20:58.648Z,390.40
2023-03-03T00:23:48.374Z,378.92
2023-03-03T00:25:52.860Z,376.08
2023-03-03T00:27:54.751Z,387.27
2023-03-03T00:29:58.437Z,416.60
2023-03-03T00:32:15.089Z,470.55
2023-03-03T00:34:26.662Z,482.92
2023-03-03T00:36:39.271Z,438.48
2023-03-03T00:38:40.920Z,454.27
2023-03-03T00:40:42.723Z,494.23
2023-03-03T00:42:49.426Z,480.88
2023-03-03T00:44:59.213Z,475.80
2023-03-03T00:47:23.376Z,461.85
2023-03-03T00:49:27.020Z,440.75
2023-03-03T00:51:35.756Z,491.42
2023-03-03T00:53:37.382Z,467.23
2023-03-03T00:55:40.530Z,482.05
2023-03-03T00:57:42.054Z,454.67
2023-03-03T00:59:43.627Z,464.35
2023-03-03T01:01:45.259Z,478.23
2023-03-03T01:03:46.820Z,498.45
2023-03-03T01:05:49.804Z,493.27
2023-03-03T01:07:51.399Z,491.60
2023-03-03T01:09:52.944Z,480.38
2023-03-03T01:11:54.929Z,454.40
2023-03-03T01:13:57.030Z,466.85
2023-03-03T01:15:59.905Z,473.63
2023-03-03T01:18:01.884Z,469.88
2023-03-03T01:20:04.682Z,452.67
2023-03-03T01:22:06.261Z,505.50
2023-03-03T01:24:07.838Z,501.40
2023-03-03T01:26:09.376Z,514.03
2023-03-03T01:28:10.942Z,431.25
2023-03-03T01:30:13.264Z,323.80
2023-03-03T01:32:14.813Z,317.60
2023-03-03T01:34:16.551Z,334.13
2023-03-03T01:36:23.889Z,344.33
2023-03-03T01:38:25.424Z,346.08
2023-03-03T01:40:30.614Z,379.40
2023-03-03T01:42:32.547Z,364.90
2023-03-03T01:44:34.559Z,350.85
2023-03-03T01:46:54.710Z,324.63
2023-03-03T01:49:21.704Z,334.20
2023-03-03T01:51:33.746Z,324.33
2023-03-03T01:53:58.117Z,342.38
2023-03-03T01:56:00.991Z,384.90
2023-03-03T01:58:11.206Z,424.88
2023-03-03T02:00:13.507Z,393.92
2023-03-03T02:02:15.693Z,282.40
2023-03-03T02:04:18.859Z,274.80
2023-03-03T02:06:25.042Z,253.38
2023-03-03T02:08:35.470Z,266.85
2023-03-03T02:10:37.471Z,259.08
2023-03-03T02:12:45.773Z,257.73
2023-03-03T02:14:47.396Z,256.23
2023-03-03T02:16:48.917Z,267.77
2023-03-03T02:18:50.424Z,239.02
2023-03-03T02:21:02.246Z,224.15
2023-03-03T02:23:27.036Z,219.65
2023-03-03T02:25:36.856Z,236.70
2023-03-03T02:27:38.815Z,253.73
2023-03-03T02:29:40.413Z,314.83
2023-03-03T02:31:43.173Z,262.15
2023-03-03T02:33:47.281Z,300.25
2023-03-03T02:35:49.211Z,282.02
2023-03-03T02:37:51.635Z,261.33
2023-03-03T02:39:53.150Z,286.70
2023-03-03T02:42:06.693Z,339.23
2023-03-03T02:44:12.184Z,401.77
2023-03-03T02:46:13.793Z,285.63
2023-03-03T02:48:15.331Z,307.58
2023-03-03T02:50:17.007Z,320.20
2023-03-03T02:52:19.140Z,330.23
2023-03-03T02:54:22.672Z,354.45
2023-03-03T02:56:24.271Z,288.60
2023-03-03T02:58:25.812Z,354.17
2023-03-03T03:00:27.351Z,330.52
2023-03-03T03:02:28.841Z,344.27
2023-03-03T03:04:30.451Z,330.77
2023-03-03T03:06:32.041Z,345.77
2023-03-03T03:08:33.668Z,336.27
2023-03-03T03:10:36.964Z,273.45
2023-03-03T03:12:38.582Z,231.23
2023-03-03T03:14:40.075Z,244.70
2023-03-03T03:16:41.835Z,198.57
2023-03-03T03:18:43.409Z,241.90
2023-03-03T03:20:46.967Z,261.27
2023-03-03T03:22:49.937Z,227.43
2023-03-03T03:24:51.449Z,287.02
2023-03-03T03:26:52.988Z,261.90
2023-03-03T03:28:55.046Z,363.88
2023-03-03T03:30:56.825Z,370.35
2023-03-03T03:32:58.323Z,345.65
2023-03-03T03:34:59.870Z,476.10
2023-03-03T03:37:01.398Z,405.70
2023-03-03T03:39:02.983Z,444.85
2023-03-03T03:41:05.894Z,557.67
2023-03-03T03:43:07.493Z,605.83
2023-03-03T03:45:09.451Z,520.72
2023-03-03T03:47:11.030Z,534.63
2023-03-03T03:49:12.585Z,405.50
2023-03-03T03:51:14.219Z,585.55
2023-03-03T03:53:16.974Z,557.33
2023-03-03T03:55:18.668Z,581.20
2023-03-03T03:57:20.371Z,539.05
2023-03-03T03:59:21.960Z,539.33
2023-03-03T04:01:23.563Z,539.55
2023-03-03T04:03:25.329Z,454.55
2023-03-03T04:05:26.993Z,530.42
2023-03-03T04:07:28.645Z,437.25
2023-03-03T04:09:30.251Z,479.67
2023-03-03T04:11:31.842Z,675.30
2023-03-03T04:13:35.359Z,438.80
2023-03-03T04:15:37.073Z,552.85
2023-03-03T04:17:38.648Z,517.55
2023-03-03T04:19:40.134Z,556.65
2023-03-03T04:21:41.687Z,463.48
2023-03-03T04:23:43.225Z,534.63
2023-03-03T04:25:47.153Z,466.80
2023-03-03T04:27:48.834Z,504.05
2023-03-03T04:29:50.364Z,654.20
2023-03-03T04:31:51.939Z,594.38
2023-03-03T04:33:53.714Z,480.75
2023-03-03T04:35:55.324Z,419.80
2023-03-03T04:37:56.963Z,528.10
2023-03-03T04:39:58.575Z,562.80
2023-03-03T04:42:00.135Z,461.13
2023-03-03T04:44:01.649Z,525.13
2023-03-03T04:46:03.321Z,470.02
2023-03-03T04:48:05.214Z,516.53
2023-03-03T04:50:08.073Z,411.98
2023-03-03T04:52:09.560Z,476.02
2023-03-03T04:54:11.131Z,510.42
2023-03-03T04:56:12.682Z,566.17
2023-03-03T04:58:16.028Z,536.58
2023-03-03T05:00:18.277Z,492.77
2023-03-03T05:02:20.206Z,462.42
2023-03-03T05:04:21.735Z,540.83
2023-03-03T05:06:23.523Z,551.83
2023-03-03T05:08:25.116Z,465.30
2023-03-03T05:10:26.831Z,478.33
2023-03-03T05:12:28.698Z,481.05
2023-03-03T05:14:31.457Z,469.10
2023-03-03T05:16:33.013Z,438.30
2023-03-03T05:18:34.537Z,455.70
2023-03-03T05:20:36.076Z,444.80
2023-03-03T05:22:37.574Z,542.33
2023-03-03T05:24:39.172Z,534.63
2023-03-03T05:26:41.712Z,538.63
2023-03-03T05:28:43.405Z,478.10
2023-03-03T05:30:45.048Z,507.25
2023-03-03T05:32:46.950Z,500.58
2023-03-03T05:34:48.511Z,480.80
2023-03-03T05:36:50.218Z,429.77
2023-03-03T05:38:52.027Z,470.40
2023-03-03T05:40:54.788Z,467.50
2023-03-03T05:42:56.707Z,491.45
2023-03-03T05:44:58.597Z,437.05
2023-03-03T05:47:00.217Z,415.27
2023-03-03T05:49:02.138Z,416.42
2023-03-03T05:51:03.879Z,441.85
2023-03-03T05:53:05.653Z,423.77
2023-03-03T05:55:07.753Z,443.45
2023-03-03T05:57:09.298Z,435.00
2023-03-03T05:59:10.871Z,424.83
2023-03-03T06:01:12.733Z,432.50
2023-03-03T06:03:18.094Z,420.85
2023-03-03T06:05:19.717Z,452.52
2023-03-03T06:07:21.198Z,413.15
2023-03-03T06:09:22.720Z,402.75
2023-03-03T06:11:24.369Z,415.58
2023-03-03T06:13:25.947Z,382.02
2023-03-03T06:15:27.508Z,383.58
2023-03-03T06:17:29.242Z,410.45
2023-03-03T06:19:30.926Z,388.92
2023-03-03T06:21:32.470Z,373.70
2023-03-03T06:23:34.049Z,386.60
2023-03-03T06:25:35.791Z,381.95
2023-03-03T06:27:37.388Z,420.55
2023-03-03T06:29:38.937Z,430.02
2023-03-03T06:31:40.617Z,445.75
2023-03-03T06:33:42.703Z,431.58
2023-03-03T06:35:44.375Z,439.27
2023-03-03T06:37:46.084Z,425.92
2023-03-03T06:39:47.595Z,367.40
2023-03-03T06:41:49.304Z,371.33
2023-03-03T06:43:51.591Z,363.88
2023-03-03T06:45:53.303Z,326.35
2023-03-03T06:47:54.866Z,271.25
2023-03-03T06:49:56.397Z,258.10
2023-03-03T06:52:01.685Z,233.73
2023-03-03T06:54:11.673Z,246.48
2023-03-03T06:56:13.232Z,283.42
2023-03-03T06:58:17.588Z,349.17
2023-03-03T07:00:26.372Z,205.90
2023-03-03T07:02:28.257Z,151.43
2023-03-03T07:04:33.615Z,193.02
2023-03-03T07:06:35.338Z,205.93
2023-03-03T07:08:37.786Z,262.83
2023-03-03T07:10:39.654Z,246.43
2023-03-03T07:12:41.190Z,230.27
2023-03-03T07:14:45.098Z,212.50
2023-03-03T07:16:46.861Z,167.05
2023-03-03T07:18:57.865Z,153.05
2023-03-03T07:21:04.185Z,121.97
2023-03-03T07:23:23.248Z,160.90
2023-03-03T07:25:31.632Z,129.05
2023-03-03T07:27:33.551Z,78.57
2023-03-03T07:29:37.952Z,112.18
2023-03-03T07:31:40.989Z,132.43
2023-03-03T07:33:45.643Z,148.70
2023-03-03T07:35:47.556Z,208.35
2023-03-03T07:37:49.283Z,186.73
2023-03-03T07:39:51.237Z,247.60
2023-03-03T07:41:53.340Z,222.13
2023-03-03T07:44:04.991Z,140.18
2023-03-03T07:46:43.008Z,228.55
2023-03-03T07:48:44.770Z,164.25
2023-03-03T07:50:46.411Z,210.43
2023-03-03T07:53:01.617Z,208.25
2023-03-03T07:55:23.206Z,219.23
2023-03-03T07:57:26.915Z,202.75
2023-03-03T07:59:28.465Z,138.57
2023-03-03T08:01:39.871Z,167.93
2023-03-03T08:03:44.861Z,148.80
2023-03-03T08:05:50.730Z,187.63
2023-03-03T08:07:52.439Z,164.23
2023-03-03T08:10:00.094Z,149.25
2023-03-03T08:12:07.948Z,166.13
2023-03-03T08:14:16.346Z,156.90
2023-03-03T08:16:17.873Z,141.52
2023-03-03T08:18:24.971Z,133.65
2023-03-03T08:20:30.165Z,132.25
2023-03-03T08:22:38.329Z,134.68
2023-03-03T08:24:39.939Z,117.70
2023-03-03T08:26:41.466Z,109.80
2023-03-03T08:28:43.025Z,124.07
2023-03-03T08:30:45.423Z,116.93
2023-03-03T08:32:47.016Z,129.48
2023-03-03T08:34:48.717Z,123.35
2023-03-03T08:36:50.274Z,115.88
2023-03-03T08:38:51.793Z,124.32
2023-03-03T08:40:53.366Z,133.57
2023-03-03T08:42:54.967Z,145.43
2023-03-03T08:44:56.489Z,120.93
2023-03-03T08:46:58.051Z,121.25
2023-03-03T08:48:59.625Z,117.18
2023-03-03T08:51:01.343Z,108.10
2023-03-03T08:53:03.257Z,119.57
2023-03-03T08:55:05.878Z,104.57
2023-03-03T08:57:08.085Z,112.80
2023-03-03T08:59:09.624Z,109.13
2023-03-03T09:01:11.138Z,126.63
2023-03-03T09:03:14.481Z,149.23
2023-03-03T09:05:17.392Z,399.17
2023-03-03T09:07:19.304Z,311.90
2023-03-03T09:09:20.929Z,216.93
2023-03-03T09:11:27.397Z,133.48
2023-03-03T09:13:30.990Z,107.65
2023-03-03T09:15:38.315Z,102.40
2023-03-03T09:17:41.524Z,112.38
2023-03-03T09:19:43.735Z,102.35
2023-03-03T09:21:45.247Z,102.65
2023-03-03T09:23:52.295Z,88.10
2023-03-03T09:25:54.137Z,89.55
2023-03-03T09:27:55.895Z,85.53
2023-03-03T09:30:02.882Z,91.55
2023-03-03T09:32:33.743Z,84.28
2023-03-03T09:34:43.103Z,97.70
2023-03-03T09:36:44.746Z,115.53
2023-03-03T09:38:47.028Z,75.30
2023-03-03T09:41:10.596Z,68.72
2023-03-03T09:43:24.164Z,76.05
2023-03-03T09:45:48.475Z,71.20
2023-03-03T09:48:12.791Z,83.38
2023-03-03T09:50:30.327Z,85.25
2023-03-03T09:53:09.719Z,86.05
2023-03-03T09:55:17.008Z,73.18
2023-03-03T09:57:29.987Z,75.80
2023-03-03T09:59:46.703Z,71.90
2023-03-03T10:02:09.360Z,74.75
2023-03-03T10:04:45.544Z,79.65
2023-03-03T10:07:11.881Z,87.53
2023-03-03T10:09:35.448Z,80.00
2023-03-03T10:11:55.143Z,87.82
2023-03-03T10:16:22.327Z,79.10
2023-03-03T10:18:36.570Z,86.30
2023-03-03T10:20:52.389Z,80.25
2023-03-03T10:22:57.046Z,83.40
2023-03-03T10:25:29.332Z,65.28
2023-03-03T10:28:01.738Z,69.57
2023-03-03T10:30:14.001Z,70.13
2023-03-03T10:32:38.465Z,71.65
2023-03-03T10:34:56.057Z,76.60
2023-03-03T10:37:03.576Z,81.75
2023-03-03T10:39:43.406Z,73.43
2023-03-03T10:42:10.099Z,69.70
2023-03-03T10:45:03.145Z,58.17
2023-03-03T10:47:35.748Z,167.70
2023-03-03T10:49:40.527Z,191.50
2023-03-03T10:52:23.520Z,109.75
2023-03-03T10:54:49.185Z,175.52
2023-03-03T10:56:58.826Z,101.43
2023-03-03T11:01:54.119Z,76.78
2023-03-03T11:04:10.237Z,71.93
2023-03-03T11:06:22.266Z,69.40
2023-03-03T11:08:45.341Z,89.97
2023-03-03T11:11:27.428Z,87.80
2023-03-03T11:13:50.987Z,88.00
2023-03-03T11:16:01.823Z,90.20
2023-03-03T11:18:25.880Z,80.22
2023-03-03T11:20:58.738Z,101.53
2023-03-03T11:23:29.788Z,90.65
2023-03-03T11:25:44.066Z,119.03
2023-03-03T11:27:57.555Z,107.97
2023-03-03T11:30:16.802Z,107.70
2023-03-03T11:32:29.959Z,112.72
2023-03-03T11:34:57.314Z,140.13
2023-03-03T11:37:06.176Z,140.05
2023-03-03T11:39:20.504Z,95.83
2023-03-03T11:41:40.997Z,57.45
2023-03-03T11:44:41.169Z,99.30
2023-03-03T11:46:51.123Z,59.15
2023-03-03T11:49:16.038Z,59.53
2023-03-03T11:51:45.395Z,59.22
2023-03-03T11:54:05.694Z,78.85
2023-03-03T11:56:34.198Z,113.78
2023-03-03T11:58:45.399Z,185.15
2023-03-03T12:01:20.906Z,204.68
2023-03-03T12:03:40.467Z,273.67
2023-03-03T12:05:56.053Z,203.93
2023-03-03T12:08:08.626Z,146.82
2023-03-03T12:10:44.750Z,71.75
2023-03-03T12:13:07.136Z,95.25
2023-03-03T12:15:08.742Z,59.72
2023-03-03T12:17:24.509Z,89.43
2023-03-03T12:20:03.210Z,162.38
2023-03-03T12:22:20.887Z,95.35
2023-03-03T12:24:47.523Z,79.65
2023-03-03T12:27:10.395Z,70.80
2023-03-03T12:29:51.204Z,69.82
2023-03-03T12:32:27.137Z,83.68
2023-03-03T12:34:37.050Z,51.45
2023-03-03T12:37:14.433Z,63.92
2023-03-03T12:39:45.224Z,51.60
2023-03-03T12:42:05.398Z,109.03
2023-03-03T12:44:24.223Z,69.20
2023-03-03T12:46:39.367Z,66.13
2023-03-03T12:48:45.692Z,65.43
2023-03-03T12:51:09.977Z,75.10
2023-03-03T12:53:25.445Z,57.03
2023-03-03T12:56:04.204Z,63.13
2023-03-03T12:58:17.766Z,69.90
2023-03-03T13:00:19.278Z,155.57
2023-03-03T13:02:58.570Z,290.13
2023-03-03T13:05:37.440Z,78.47
2023-03-03T13:08:08.838Z,53.73
2023-03-03T13:10:10.358Z,57.67
2023-03-03T13:12:45.476Z,55.15
2023-03-03T13:14:59.098Z,60.95
2023-03-03T13:17:17.417Z,55.45
2023-03-03T13:19:25.897Z,67.85
2023-03-03T13:21:45.286Z,42.65
2023-03-03T13:23:46.773Z,51.95
2023-03-03T13:25:59.459Z,58.38
2023-03-03T13:28:23.349Z,63.28
2023-03-03T13:30:30.111Z,44.50
2023-03-03T13:33:00.792Z,45.63
2023-03-03T13:35:21.601Z,82.65
2023-03-03T13:37:45.478Z,88.38
2023-03-03T13:40:13.461Z,83.57
2023-03-03T13:42:36.705Z,70.15
2023-03-03T13:44:43.427Z,68.57
2023-03-03T13:47:02.680Z,65.82
2023-03-03T13:49:16.057Z,64.72
2023-03-03T13:51:31.390Z,58.53
2023-03-03T13:53:47.343Z,69.38
2023-03-03T13:56:03.929Z,51.97
2023-03-03T13:58:20.125Z,52.97
2023-03-03T14:00:30.887Z,59.33
2023-03-03T14:05:35.598Z,62.08
2023-03-03T14:07:52.289Z,84.80
2023-03-03T14:10:08.784Z,50.28
2023-03-03T14:12:33.787Z,39.80
2023-03-03T14:15:17.489Z,40.38
2023-03-03T14:17:57.849Z,55.30
2023-03-03T14:20:14.372Z,49.45
2023-03-03T14:22:24.110Z,48.28
2023-03-03T14:24:29.370Z,53.58
2023-03-03T14:26:52.833Z,54.30
2023-03-03T14:29:32.264Z,57.30
2023-03-03T14:31:43.342Z,70.75
2023-03-03T14:33:58.259Z,74.55
2023-03-03T14:35:59.792Z,96.25
2023-03-03T14:38:23.792Z,65.57
2023-03-03T14:40:32.958Z,69.97
2023-03-03T14:42:58.095Z,73.60
2023-03-03T14:45:04.864Z,67.22
2023-03-03T14:47:09.450Z,107.53
2023-03-03T14:49:31.778Z,80.25
2023-03-03T14:51:39.275Z,84.40
2023-03-03T14:53:48.615Z,78.40
2023-03-03T14:56:17.331Z,72.78
2023-03-03T14:58:39.405Z,59.33
2023-03-03T15:00:40.918Z,77.55
2023-03-03T15:03:04.683Z,70.60
2023-03-03T15:05:21.562Z,58.15
2023-03-03T15:07:31.844Z,64.60
2023-03-03T15:09:43.556Z,53.90
2023-03-03T15:11:50.977Z,320.65
2023-03-03T15:13:59.894Z,68.15
2023-03-03T15:16:33.130Z,81.63
2023-03-03T15:18:35.157Z,87.15
2023-03-03T15:20:56.094Z,79.57
2023-03-03T15:23:14.480Z,89.28
2023-03-03T15:25:43.193Z,91.82
2023-03-03T15:28:06.236Z,49.17
2023-03-03T15:30:25.022Z,78.80
2023-03-03T15:32:40.551Z,111.90
2023-03-03T15:35:28.312Z,70.00
2023-03-03T15:37:56.713Z,76.40
2023-03-03T15:40:26.674Z,74.68
2023-03-03T15:42:42.886Z,61.28
2023-03-03T15:45:02.975Z,61.22
2023-03-03T15:47:33.554Z,127.63
2023-03-03T15:49:52.910Z,58.75
2023-03-03T15:52:22.806Z,73.32
2023-03-03T15:54:27.401Z,71.03
2023-03-03T15:57:00.857Z,109.13
2023-03-03T15:59:34.573Z,76.47
2023-03-03T16:02:14.474Z,112.47
2023-03-03T16:04:19.989Z,66.35
2023-03-03T16:06:37.413Z,69.80
2023-03-03T16:08:54.159Z,82.43
2023-03-03T16:11:08.700Z,130.63
2023-03-03T16:13:45.803Z,104.05
2023-03-03T16:16:01.381Z,104.95
2023-03-03T16:18:12.000Z,113.15
2023-03-03T16:20:36.647Z,58.55
2023-03-03T16:23:10.048Z,63.90
2023-03-03T16:25:29.381Z,96.10
2023-03-03T16:27:43.321Z,108.00
2023-03-03T16:30:26.289Z,127.32
2023-03-03T16:32:48.401Z,161.85
2023-03-03T16:35:11.939Z,180.68
2023-03-03T16:37:23.198Z,156.95
2023-03-03T16:39:24.633Z,118.57
2023-03-03T16:41:41.208Z,116.38
2023-03-03T16:43:54.509Z,111.82
2023-03-03T16:45:59.744Z,107.75
2023-03-03T16:48:29.728Z,101.93
2023-03-03T16:50:50.001Z,110.53
2023-03-03T16:53:01.273Z,117.50
2023-03-03T16:55:19.357Z,106.72
2023-03-03T16:57:47.927Z,103.47
2023-03-03T17:00:04.473Z,108.22
2023-03-03T17:02:39.701Z,108.22
2023-03-03T17:05:03.069Z,119.20
2023-03-03T17:07:19.635Z,96.43
2023-03-03T17:09:45.131Z,80.85
2023-03-03T17:12:02.572Z,110.13
2023-03-03T17:14:16.671Z,136.65
2023-03-03T17:16:51.864Z,107.75
2023-03-03T17:19:05.431Z,82.97
2023-03-03T17:21:32.341Z,87.68
2023-03-03T17:23:48.273Z,93.18
2023-03-03T17:26:17.506Z,84.45
2023-03-03T17:28:41.068Z,97.93
2023-03-03T17:30:54.417Z,140.65
2023-03-03T17:33:34.830Z,197.75
2023-03-03T17:35:52.095Z,132.00
2023-03-03T17:38:24.386Z,119.18
2023-03-03T17:40:58.830Z,356.08
2023-03-03T17:43:25.371Z,190.10
2023-03-03T17:45:30.378Z,165.55
2023-03-03T17:48:03.810Z,220.60
2023-03-03T17:50:21.149Z,92.95
2023-03-03T17:52:52.387Z,187.82
2023-03-03T17:55:04.723Z,212.75
2023-03-03T17:57:28.798Z,78.90
2023-03-03T17:59:55.970Z,138.13
2023-03-03T18:02:21.856Z,142.80
2023-03-03T18:05:20.301Z,91.38
2023-03-03T18:07:39.594Z,127.53
2023-03-03T18:10:25.567Z,93.00
2023-03-03T18:13:04.733Z,69.80
2023-03-03T18:15:12.208Z,67.93
2023-03-03T18:17:48.068Z,94.28
2023-03-03T18:20:31.549Z,104.53
2023-03-03T18:22:48.225Z,87.95
2023-03-03T18:24:49.695Z,86.63
2023-03-03T18:26:55.926Z,85.45
2023-03-03T18:29:18.356Z,101.82
2023-03-03T18:31:26.276Z,80.47
2023-03-03T18:33:58.350Z,84.68
2023-03-03T18:36:36.707Z,78.13
2023-03-03T18:38:39.037Z,77.97
2023-03-03T18:40:51.279Z,69.85
2023-03-03T18:42:53.977Z,75.03
2023-03-03T18:44:55.578Z,64.45
2023-03-03T18:46:58.924Z,66.93
2023-03-03T18:49:10.157Z,89.45
2023-03-03T18:51:11.695Z,83.55
2023-03-03T18:53:25.347Z,65.95
2023-03-03T18:55:27.576Z,106.78
2023-03-03T18:57:29.418Z,82.10
2023-03-03T18:59:30.945Z,77.82
2023-03-03T19:01:33.494Z,68.00
2023-03-03T19:03:38.187Z,66.88
2023-03-03T19:05:50.065Z,71.85
2023-03-03T19:08:01.603Z,78.00
2023-03-03T19:10:14.362Z,120.47
2023-03-03T19:12:17.073Z,79.03
2023-03-03T19:14:29.455Z,81.40
2023-03-03T19:16:36.649Z,106.20
2023-03-03T19:18:41.000Z,78.68
2023-03-03T19:20:46.184Z,258.65
2023-03-03T19:22:50.015Z,98.40
2023-03-03T19:25:15.902Z,103.03
2023-03-03T19:27:56.789Z,118.10
2023-03-03T19:30:19.930Z,131.15
2023-03-03T19:32:26.420Z,133.52
2023-03-03T19:34:45.370Z,104.47
2023-03-03T19:36:55.696Z,114.65
2023-03-03T19:39:29.782Z,125.88
2023-03-03T19:42:01.597Z,111.70
2023-03-03T19:44:23.289Z,83.22
2023-03-03T19:46:43.005Z,57.08
2023-03-03T19:48:51.727Z,62.75
2023-03-03T19:51:10.529Z,56.10
2023-03-03T19:53:25.475Z,82.15
2023-03-03T19:55:32.935Z,343.90
2023-03-03T19:57:49.325Z,1134.65
2023-03-03T20:00:24.951Z,716.97
2023-03-03T20:02:54.900Z,288.70
2023-03-03T20:05:18.328Z,599.83
2023-03-03T20:07:55.283Z,634.88
2023-03-03T20:10:12.127Z,764.28
2023-03-03T20:12:30.235Z,308.00
2023-03-03T20:14:49.312Z,730.60
2023-03-03T20:16:55.329Z,431.23
2023-03-03T20:19:28.927Z,301.58
2023-03-03T20:21:44.197Z,110.88
2023-03-03T20:24:00.139Z,96.15
2023-03-03T20:26:12.733Z,114.55
2023-03-03T20:28:49.573Z,81.05
2023-03-03T20:30:59.580Z,79.47
2023-03-03T20:33:16.389Z,76.65
2023-03-03T20:35:36.694Z,76.53
2023-03-03T20:37:47.360Z,87.07
2023-03-03T20:40:18.181Z,100.63
2023-03-03T20:42:41.640Z,124.43
2023-03-03T20:45:04.740Z,130.82
2023-03-03T20:47:24.461Z,136.38
2023-03-03T20:52:28.050Z,137.43
2023-03-03T20:54:44.589Z,122.40
2023-03-03T20:57:12.174Z,141.73
2023-03-03T20:59:32.001Z,183.93
2023-03-03T21:01:47.390Z,209.65
2023-03-03T21:03:49.249Z,163.73
2023-03-03T21:05:55.406Z,156.52
2023-03-03T21:08:02.808Z,157.40
2023-03-03T21:10:35.607Z,99.47
2023-03-03T21:12:37.233Z,138.00
2023-03-03T21:14:38.898Z,144.25
2023-03-03T21:16:42.244Z,116.65
2023-03-03T21:18:58.387Z,142.50
2023-03-03T21:21:08.578Z,118.72
2023-03-03T21:23:11.821Z,97.97
2023-03-03T21:25:46.681Z,104.85
2023-03-03T21:27:48.200Z,85.60
2023-03-03T21:30:13.432Z,93.97
2023-03-03T21:32:35.932Z,70.30
2023-03-03T21:34:39.603Z,75.10
2023-03-03T21:36:41.039Z,82.57
2023-03-03T21:38:43.654Z,97.57
2023-03-03T21:40:59.507Z,73.90
2023-03-03T21:43:01.211Z,75.65
2023-03-03T21:45:13.835Z,82.53
2023-03-03T21:47:21.038Z,63.75
2023-03-03T21:49:22.687Z,73.43
2023-03-03T21:51:24.941Z,60.88
2023-03-03T21:53:27.306Z,57.78
2023-03-03T21:55:28.809Z,65.47
2023-03-03T21:57:30.638Z,60.60
2023-03-03T21:59:32.249Z,56.13
2023-03-03T22:01:34.945Z,69.90
2023-03-03T22:03:37.636Z,68.03
2023-03-03T22:05:39.466Z,50.53
2023-03-03T22:07:41.017Z,56.85
2023-03-03T22:09:42.586Z,68.65
2023-03-03T22:11:44.472Z,75.72
2023-03-03T22:13:46.071Z,69.90
2023-03-03T22:15:48.342Z,115.53
2023-03-03T22:17:50.119Z,92.05
2023-03-03T22:19:52.074Z,62.75
2023-03-03T22:21:53.576Z,54.30
2023-03-03T22:23:55.152Z,70.68
2023-03-03T22:25:56.642Z,74.00
2023-03-03T22:27:58.183Z,65.07
2023-03-03T22:29:59.701Z,66.75
2023-03-03T22:32:01.244Z,71.55
2023-03-03T22:34:03.386Z,51.00
2023-03-03T22:36:05.333Z,106.85
2023-03-03T22:38:06.921Z,56.38
2023-03-03T22:40:09.153Z,60.35
2023-03-03T22:42:11.275Z,57.72
2023-03-03T22:44:12.827Z,63.05
2023-03-03T22:46:14.414Z,65.63
2023-03-03T22:48:15.961Z,75.22
2023-03-03T22:50:18.334Z,55.28
2023-03-03T22:52:19.821Z,70.47
2023-03-03T22:54:21.338Z,76.88
2023-03-03T22:56:22.884Z,74.90
2023-03-03T22:58:26.990Z,62.63
2023-03-03T23:00:28.512Z,59.47
2023-03-03T23:02:30.123Z,61.28
2023-03-03T23:04:33.069Z,63.63
2023-03-03T23:06:34.737Z,59.38
2023-03-03T23:08:36.265Z,56.03
2023-03-03T23:10:38.052Z,55.58
2023-03-03T23:12:39.621Z,150.27
2023-03-03T23:14:41.250Z,81.07
2023-03-03T23:16:42.852Z,78.82
2023-03-03T23:18:44.548Z,82.97
2023-03-03T23:20:46.258Z,75.72
2023-03-03T23:22:48.050Z,93.32
2023-03-03T23:24:49.559Z,78.40
2023-03-03T23:26:57.517Z,67.45
2023-03-03T23:28:59.105Z,78.72
2023-03-03T23:31:00.702Z,91.72
2023-03-03T23:33:02.238Z,82.38
2023-03-03T23:35:04.293Z,65.38
2023-03-03T23:37:05.802Z,58.05
2023-03-03T23:39:07.334Z,61.78
2023-03-03T23:41:08.852Z,68.40
2023-03-03T23:43:10.408Z,76.68
2023-03-03T23:45:13.390Z,59.22
2023-03-03T23:47:14.956Z,56.35
2023-03-03T23:49:16.498Z,58.42
2023-03-03T23:51:18.016Z,64.30
2023-03-03T23:53:19.651Z,65.40
2023-03-03T23:55:21.116Z,59.58
2023-03-03T23:57:22.616Z,61.25
2023-03-03T23:59:24.162Z,66.25
